Time;durP1;ratioP1;P1;durP2;ratioP2;P2;SDS_P1;SDS_P2;PMS_P1;PMS_P2;Temp;Humidity;BMP_temperature;BMP_pressure;BME280_temperature;BME280_humidity;BME280_pressure;Samples;Min_cycle;Max_cycle;Signal;HPM_P1;HPM_P2
2024/04/10 00:00:16;;;;;;;6.55;1.33;;;;;;;9.79;100.00;98142.81;5273555;27;20090;-80
2024/04/10 00:02:43;;;;;;;2.83;1.10;;;;;;;9.67;100.00;98146.00;5268749;27;20335;-80
2024/04/10 00:05:11;;;;;;;4.82;1.00;;;;;;;9.68;100.00;98139.50;5256284;27;20007;-80
2024/04/10 00:07:38;;;;;;;5.05;1.08;;;;;;;9.49;100.00;98136.03;5250489;27;20014;-79
2024/04/10 00:10:05;;;;;;;6.70;1.33;;;;;;;9.52;100.00;98123.84;5261904;27;20002;-78
2024/04/10 00:12:33;;;;;;;5.30;1.00;;;;;;;9.86;100.00;98133.22;5268103;27;20003;-79
2024/04/10 00:15:00;;;;;;;5.43;1.30;;;;;;;10.08;100.00;98134.47;5295532;26;20006;-79
2024/04/10 00:17:28;;;;;;;2.25;0.90;;;;;;;10.10;100.00;98148.47;5270288;27;20073;-79
2024/04/10 00:19:55;;;;;;;3.10;1.05;;;;;;;10.21;100.00;98144.53;5269789;27;20053;-80
2024/04/10 00:22:23;;;;;;;5.35;1.30;;;;;;;10.21;100.00;98142.63;5264151;27;20006;-79
2024/04/10 00:24:52;;;;;;;7.80;1.23;;;;;;;10.36;100.00;98147.75;5286609;26;20002;-80
2024/04/10 00:27:22;;;;;;;7.20;1.10;;;;;;;10.36;100.00;98152.34;5235444;27;20015;-80
2024/04/10 00:29:50;;;;;;;5.75;1.30;;;;;;;10.37;100.00;98156.66;5243468;27;20011;-78
2024/04/10 00:32:17;;;;;;;3.95;1.15;;;;;;;10.43;100.00;98142.72;5241123;27;20415;-80
2024/04/10 00:34:46;;;;;;;5.55;1.10;;;;;;;10.44;100.00;98133.50;5253610;27;20014;-81
2024/04/10 00:37:13;;;;;;;10.30;1.25;;;;;;;10.60;100.00;98153.75;5271390;27;20054;-81
2024/04/10 00:39:40;;;;;;;3.53;1.15;;;;;;;10.70;100.00;98158.16;5278038;27;20533;-81
2024/04/10 00:42:07;;;;;;;5.63;1.40;;;;;;;10.73;100.00;98159.47;5304672;26;20334;-80
2024/04/10 00:44:33;;;;;;;4.25;1.52;;;;;;;10.72;100.00;98164.06;5260842;27;20002;-79
2024/04/10 00:47:00;;;;;;;3.60;1.20;;;;;;;10.77;100.00;98168.56;5261671;27;19999;-78
2024/04/10 00:49:28;;;;;;;3.47;1.10;;;;;;;10.76;100.00;98166.97;5246882;27;20006;-81
2024/04/10 00:51:55;;;;;;;5.03;1.20;;;;;;;10.80;100.00;98171.47;5267778;27;20002;-80
2024/04/10 00:54:23;;;;;;;4.15;1.10;;;;;;;10.71;100.00;98159.75;5259863;27;20008;-79
2024/04/10 00:56:50;;;;;;;8.48;1.50;;;;;;;10.59;100.00;98168.41;5273683;27;20098;-79
2024/04/10 00:59:17;;;;;;;5.25;1.30;;;;;;;10.63;100.00;98160.47;5266028;27;20517;-80
2024/04/10 01:01:44;;;;;;;6.30;1.90;;;;;;;10.46;100.00;98177.31;5256842;27;20043;-80
2024/04/10 01:04:11;;;;;;;5.90;1.65;;;;;;;10.32;100.00;98163.00;5251067;26;20400;-80
2024/04/10 01:06:38;;;;;;;5.20;1.98;;;;;;;9.99;100.00;98155.97;5261808;26;20364;-80
2024/04/10 01:09:05;;;;;;;4.38;1.83;;;;;;;10.03;100.00;98163.22;5263872;27;20081;-78
2024/04/10 01:11:32;;;;;;;9.27;2.75;;;;;;;10.06;100.00;98171.84;5240386;27;19999;-80
2024/04/10 01:14:00;;;;;;;10.57;2.78;;;;;;;9.93;100.00;98168.00;5275454;27;19998;-81
2024/04/10 01:16:27;;;;;;;12.18;3.03;;;;;;;9.97;100.00;98171.72;5271517;27;20073;-79
2024/04/10 01:18:54;;;;;;;9.18;2.85;;;;;;;10.01;100.00;98167.31;5251019;27;20531;-78
2024/04/10 01:21:20;;;;;;;9.15;3.13;;;;;;;10.02;100.00;98190.56;5254052;27;20014;-80
2024/04/10 01:23:47;;;;;;;5.90;2.50;;;;;;;9.98;100.00;98173.31;5257258;27;20006;-79
2024/04/10 01:26:15;;;;;;;7.40;2.97;;;;;;;10.09;100.00;98176.66;5252027;26;20128;-78
2024/04/10 01:28:41;;;;;;;7.03;2.97;;;;;;;10.12;100.00;98176.06;5264915;27;20034;-81
2024/04/10 01:31:08;;;;;;;7.45;3.28;;;;;;;9.92;100.00;98172.59;5264068;27;20006;-78
2024/04/10 01:33:35;;;;;;;8.40;3.38;;;;;;;10.08;100.00;98173.16;5269365;27;20031;-78
2024/04/10 01:36:07;;;;;;;9.70;3.25;;;;;;;9.97;100.00;98164.41;5266748;27;20222;-80
2024/04/10 01:38:35;;;;;;;12.32;2.97;;;;;;;10.01;100.00;98194.38;5254081;27;20007;-79
2024/04/10 01:41:02;;;;;;;10.15;3.38;;;;;;;10.16;100.00;98179.78;5248478;27;20007;-78
2024/04/10 01:43:29;;;;;;;6.68;3.10;;;;;;;10.28;100.00;98178.22;5244727;27;20015;-79
2024/04/10 01:45:56;;;;;;;7.13;3.03;;;;;;;10.32;100.00;98181.94;5303631;26;20013;-80
2024/04/10 01:48:23;;;;;;;7.00;2.90;;;;;;;10.25;100.00;98161.75;5267584;26;20003;-79
2024/04/10 01:50:50;;;;;;;12.25;3.67;;;;;;;10.11;100.00;98179.88;5269031;27;20465;-81
2024/04/10 01:53:17;;;;;;;10.13;3.25;;;;;;;10.16;100.00;98179.78;5270587;27;20031;-80
2024/04/10 01:55:44;;;;;;;8.77;3.47;;;;;;;10.22;100.00;98192.13;5261173;27;20167;-79
2024/04/10 01:58:11;;;;;;;6.90;3.83;;;;;;;10.15;100.00;98179.00;5265861;27;20007;-80
2024/04/10 02:00:38;;;;;;;10.43;3.00;;;;;;;10.21;100.00;98204.88;5255927;27;20007;-79
2024/04/10 02:03:05;;;;;;;10.32;3.53;;;;;;;10.12;100.00;98184.19;5266521;27;20030;-80
2024/04/10 02:07:04;;;;;;;;;;;;;;;10.24;100.00;98195.34;5450240;25;20374;-78
2024/04/10 02:09:31;;;;;;;9.88;3.22;;;;;;;10.30;100.00;98210.38;5432642;26;19925;-77
2024/04/10 02:11:59;;;;;;;10.82;3.78;;;;;;;10.23;100.00;98197.25;5430370;26;20722;-78
2024/04/10 02:14:28;;;;;;;9.18;3.55;;;;;;;10.29;100.00;98208.78;5433760;26;19999;-78
2024/04/10 02:16:55;;;;;;;11.07;3.72;;;;;;;10.30;100.00;98213.88;5445514;26;19999;-79
2024/04/10 02:19:22;;;;;;;11.85;3.25;;;;;;;10.34;100.00;98225.72;5452972;26;20135;-79
2024/04/10 02:21:48;;;;;;;10.27;3.75;;;;;;;10.41;100.00;98228.03;5430566;26;20800;-79
2024/04/10 02:24:15;;;;;;;8.70;3.83;;;;;;;10.36;100.00;98230.84;5432578;26;20022;-78
2024/04/10 02:26:42;;;;;;;10.32;3.90;;;;;;;10.05;100.00;98219.72;5419213;26;19995;-78
2024/04/10 02:29:09;;;;;;;12.30;3.72;;;;;;;10.18;100.00;98237.13;5422775;26;20023;-78
2024/04/10 02:31:36;;;;;;;7.78;3.58;;;;;;;10.21;100.00;98245.44;5425332;26;19998;-79
2024/04/10 02:34:03;;;;;;;11.27;4.03;;;;;;;10.31;100.00;98247.16;5425538;26;20457;-78
2024/04/10 02:36:30;;;;;;;6.38;3.28;;;;;;;10.36;100.00;98241.66;5441924;26;20014;-77
2024/04/10 02:38:57;;;;;;;10.10;3.63;;;;;;;10.36;100.00;98247.88;5440578;26;20002;-78
2024/04/10 02:41:24;;;;;;;10.77;3.95;;;;;;;10.34;100.00;98243.88;5440676;26;20007;-77
2024/04/10 02:43:51;;;;;;;10.40;3.85;;;;;;;10.25;100.00;98257.28;5425231;26;20330;-77
2024/04/10 02:46:18;;;;;;;9.55;3.55;;;;;;;10.12;100.00;98246.41;5439733;26;20023;-76
2024/04/10 02:48:45;;;;;;;10.48;3.78;;;;;;;10.08;100.00;98257.00;5427379;26;20471;-77
2024/04/10 02:51:12;;;;;;;12.73;3.92;;;;;;;10.02;100.00;98269.00;5423783;26;20058;-77
2024/04/10 02:53:39;;;;;;;7.43;3.70;;;;;;;10.06;100.00;98266.50;5419720;26;20007;-77
2024/04/10 02:56:06;;;;;;;8.32;3.75;;;;;;;10.07;100.00;98287.03;5427433;26;20013;-78
2024/04/10 02:58:33;;;;;;;12.20;3.75;;;;;;;9.94;100.00;98280.47;5424278;26;19996;-78
2024/04/10 03:01:00;;;;;;;7.80;3.47;;;;;;;10.08;100.00;98283.25;5443223;26;19999;-78
2024/04/10 03:03:27;;;;;;;11.52;3.88;;;;;;;10.13;100.00;98280.50;5420194;26;20077;-77
2024/04/10 03:06:05;;;;;;;7.18;3.60;;;;;;;10.23;100.00;98296.56;5422783;26;20036;-78
2024/04/10 03:08:33;;;;;;;9.93;3.67;;;;;;;10.22;100.00;98287.63;5412106;26;20011;-76
2024/04/10 03:11:01;;;;;;;12.30;3.55;;;;;;;10.26;100.00;98291.38;5422220;26;20577;-75
2024/04/10 03:13:28;;;;;;;9.30;3.63;;;;;;;10.03;100.00;98301.19;5423222;26;20011;-78
2024/04/10 03:15:55;;;;;;;6.57;3.47;;;;;;;10.16;100.00;98298.84;5434470;26;19995;-78
2024/04/10 03:18:22;;;;;;;8.32;3.55;;;;;;;10.21;100.00;98290.63;5418557;26;20018;-78
2024/04/10 03:20:49;;;;;;;9.75;2.92;;;;;;;10.16;100.00;98304.25;5409194;26;19999;-78
2024/04/10 03:23:16;;;;;;;7.70;3.50;;;;;;;10.17;100.00;98298.53;5409465;26;20016;-79
2024/04/10 03:25:43;;;;;;;8.30;3.47;;;;;;;10.20;100.00;98310.66;5408525;26;20008;-76
2024/04/10 03:28:10;;;;;;;9.18;3.20;;;;;;;10.21;100.00;98306.88;5413247;26;19995;-79
2024/04/10 03:30:37;;;;;;;8.38;3.50;;;;;;;10.11;100.00;98318.66;5414518;26;20007;-78
2024/04/10 03:33:04;;;;;;;7.78;3.55;;;;;;;10.18;100.00;98329.09;5410142;26;20592;-79
2024/04/10 03:35:31;;;;;;;7.80;3.38;;;;;;;10.25;100.00;98327.63;5424424;26;20014;-79
2024/04/10 03:37:58;;;;;;;9.27;2.97;;;;;;;10.16;100.00;98320.47;5423869;26;19994;-77
2024/04/10 03:40:25;;;;;;;8.30;3.17;;;;;;;10.30;100.00;98322.13;5400864;26;20082;-79
2024/04/10 03:42:53;;;;;;;7.20;3.55;;;;;;;10.28;100.00;98327.03;5428468;26;20010;-79
2024/04/10 03:45:20;;;;;;;8.77;3.50;;;;;;;10.31;100.00;98339.19;5416159;26;20010;-78
2024/04/10 03:47:48;;;;;;;9.60;3.22;;;;;;;10.35;100.00;98340.22;5408429;26;20004;-77
2024/04/10 03:50:15;;;;;;;8.52;3.17;;;;;;;10.33;100.00;98345.09;5410042;26;20030;-79
2024/04/10 03:52:45;;;;;;;7.80;3.00;;;;;;;10.27;100.00;98335.47;5398205;26;20008;-81
2024/04/10 03:55:12;;;;;;;8.18;3.20;;;;;;;10.10;100.00;98335.97;5401910;26;19999;-79
2024/04/10 03:57:39;;;;;;;11.68;3.33;;;;;;;10.26;100.00;98344.69;5410953;26;20016;-80
2024/04/10 04:00:07;;;;;;;8.35;3.10;;;;;;;10.28;100.00;98345.97;5415392;26;20003;-79
2024/04/10 04:02:39;;;;;;;9.35;3.70;;;;;;;10.22;100.00;98338.25;5412010;26;20632;-80
2024/04/10 04:05:06;;;;;;;7.97;2.80;;;;;;;10.25;100.00;98345.75;5404200;26;19995;-79
2024/04/10 04:07:33;;;;;;;7.78;3.08;;;;;;;10.11;100.00;98344.88;5410659;26;20640;-80
2024/04/10 04:10:00;;;;;;;11.23;3.08;;;;;;;10.24;100.00;98347.69;5400787;26;20049;-79
2024/04/10 04:12:26;;;;;;;9.32;3.25;;;;;;;10.29;100.00;98353.03;5407942;26;21792;-80
2024/04/10 04:14:56;;;;;;;7.50;2.90;;;;;;;10.19;100.00;98368.59;5411590;26;20000;-78
2024/04/10 04:17:23;;;;;;;7.10;3.20;;;;;;;10.06;100.00;98361.19;5410773;26;20011;-79
2024/04/10 04:19:50;;;;;;;8.45;2.70;;;;;;;10.02;100.00;98356.38;5408177;26;20003;-78
2024/04/10 04:22:17;;;;;;;8.23;2.85;;;;;;;10.08;100.00;98373.34;5428332;26;20025;-78
2024/04/10 04:24:44;;;;;;;6.10;2.70;;;;;;;10.06;100.00;98378.25;5406586;26;20477;-78
2024/04/10 04:27:12;;;;;;;4.28;2.63;;;;;;;10.01;100.00;98381.78;5401466;26;20011;-78
2024/04/10 04:29:39;;;;;;;8.32;3.05;;;;;;;10.11;100.00;98375.47;5406984;26;20015;-78
2024/04/10 04:32:06;;;;;;;8.63;2.90;;;;;;;10.08;100.00;98392.28;5408031;26;20003;-78
2024/04/10 04:34:33;;;;;;;9.68;3.25;;;;;;;9.98;100.00;98387.81;5406482;26;20008;-78
2024/04/10 04:37:00;;;;;;;7.75;2.80;;;;;;;9.95;100.00;98396.50;5405618;26;19995;-77
2024/04/10 04:39:26;;;;;;;5.90;2.88;;;;;;;9.98;100.00;98406.75;5396085;26;21559;-78
2024/04/10 04:41:53;;;;;;;9.75;2.60;;;;;;;10.11;100.00;98412.53;5406377;26;20072;-78
2024/04/10 04:44:20;;;;;;;10.05;2.65;;;;;;;10.04;100.00;98399.34;5403650;26;20015;-78
2024/04/10 04:46:49;;;;;;;5.55;2.50;;;;;;;10.12;100.00;98403.31;5395004;26;20000;-78
2024/04/10 04:49:16;;;;;;;9.30;2.85;;;;;;;10.19;100.00;98409.19;5404381;26;20680;-79
2024/04/10 04:51:43;;;;;;;9.75;2.75;;;;;;;10.15;100.00;98413.56;5408638;26;20365;-78
2024/04/10 04:54:10;;;;;;;7.05;2.30;;;;;;;10.24;100.00;98418.03;5407728;26;20022;-79
2024/04/10 04:56:37;;;;;;;7.25;2.55;;;;;;;10.19;100.00;98410.00;5408834;26;20007;-78
2024/04/10 04:59:04;;;;;;;7.70;2.40;;;;;;;10.13;100.00;98404.94;5407001;26;20068;-78
2024/04/10 05:01:31;;;;;;;8.15;2.45;;;;;;;10.02;100.00;98407.75;5399459;26;20461;-78
2024/04/10 05:06:43;;;;;;;5.40;2.53;;;;;;;10.19;100.00;98426.25;5403898;26;20411;-77
2024/04/10 05:09:10;;;;;;;7.20;2.55;;;;;;;10.14;100.00;98430.91;5375605;26;20016;-78
2024/04/10 05:11:37;;;;;;;7.78;2.55;;;;;;;10.02;100.00;98434.81;5369628;26;20001;-78
2024/04/10 05:14:04;;;;;;;6.70;2.63;;;;;;;10.09;100.00;98439.84;5369784;26;20424;-77
2024/04/10 05:16:33;;;;;;;6.82;3.00;;;;;;;10.17;100.00;98436.53;5366053;26;20005;-78
2024/04/10 05:19:04;;;;;;;7.95;2.60;;;;;;;10.10;100.00;98459.59;5366754;26;20063;-78
2024/04/10 05:21:32;;;;;;;8.05;2.50;;;;;;;10.08;100.00;98449.09;5373015;26;20004;-77
2024/04/10 05:23:59;;;;;;;9.20;2.80;;;;;;;10.12;100.00;98458.25;5368266;26;20000;-77
2024/04/10 05:26:26;;;;;;;5.28;2.67;;;;;;;10.20;100.00;98451.38;5367769;26;20073;-78
2024/04/10 05:28:53;;;;;;;11.80;3.00;;;;;;;10.13;100.00;98446.34;5370299;26;20015;-78
2024/04/10 05:31:20;;;;;;;9.15;2.90;;;;;;;10.10;100.00;98446.06;5401100;26;20035;-77
2024/04/10 05:33:46;;;;;;;8.65;2.83;;;;;;;10.13;100.00;98454.44;5405633;26;20011;-78
2024/04/10 05:36:13;;;;;;;8.20;2.58;;;;;;;10.11;100.00;98453.91;5404209;26;20640;-77
2024/04/10 05:38:40;;;;;;;7.18;2.50;;;;;;;10.09;100.00;98455.31;5409478;26;20750;-77
2024/04/10 05:41:07;;;;;;;7.20;2.45;;;;;;;10.03;100.00;98459.97;5404053;26;20001;-77
2024/04/10 05:43:36;;;;;;;9.82;2.35;;;;;;;10.14;100.00;98474.19;5410538;26;20450;-77
2024/04/10 05:46:03;;;;;;;7.82;2.78;;;;;;;10.15;100.00;98473.09;5405125;26;20007;-78
2024/04/10 05:48:30;;;;;;;7.15;2.40;;;;;;;10.19;100.00;98479.53;5408400;26;20018;-78
2024/04/10 05:51:01;;;;;;;8.38;2.80;;;;;;;10.11;100.00;98491.78;5403664;26;20003;-78
2024/04/10 05:53:28;;;;;;;11.20;2.55;;;;;;;10.16;100.00;98486.34;5405324;26;20010;-78
2024/04/10 05:55:55;;;;;;;7.22;2.25;;;;;;;10.28;100.00;98507.56;5405655;26;20123;-78
2024/04/10 05:58:22;;;;;;;8.35;2.60;;;;;;;10.19;100.00;98507.41;5398318;26;20044;-78
2024/04/10 06:00:48;;;;;;;7.85;2.30;;;;;;;10.09;100.00;98517.53;5388052;26;20451;-78
2024/04/10 06:03:18;;;;;;;6.93;2.67;;;;;;;10.26;100.00;98526.78;5402749;26;20093;-78
2024/04/10 06:05:46;;;;;;;9.38;2.33;;;;;;;10.29;100.00;98520.00;5403776;26;20019;-78
2024/04/10 06:08:13;;;;;;;5.18;2.40;;;;;;;10.26;100.00;98534.09;5407188;26;19991;-77
2024/04/10 06:10:39;;;;;;;8.88;2.38;;;;;;;10.37;100.00;98544.53;5404233;26;20008;-78
2024/04/10 06:13:06;;;;;;;9.00;2.53;;;;;;;10.41;100.00;98528.47;5401098;26;20011;-78
2024/04/10 06:15:33;;;;;;;7.22;2.35;;;;;;;10.46;100.00;98547.38;5408894;26;20014;-78
2024/04/10 06:18:00;;;;;;;5.68;2.35;;;;;;;10.33;100.00;98523.72;5409782;26;20137;-78
2024/04/10 06:20:27;;;;;;;6.90;2.33;;;;;;;10.55;100.00;98534.81;5409174;26;20015;-79
2024/04/10 06:22:54;;;;;;;7.80;2.42;;;;;;;10.57;100.00;98538.81;5406134;26;20050;-78
2024/04/10 06:25:21;;;;;;;6.82;2.53;;;;;;;10.55;100.00;98548.34;5405854;26;20080;-78
2024/04/10 06:27:48;;;;;;;10.57;2.78;;;;;;;10.60;100.00;98550.97;5431057;26;20515;-78
2024/04/10 06:30:16;;;;;;;5.50;2.38;;;;;;;10.63;100.00;98553.88;5404437;26;20358;-78
2024/04/10 06:32:43;;;;;;;9.48;2.15;;;;;;;10.67;100.00;98554.13;5405853;26;19999;-79
2024/04/10 06:35:10;;;;;;;8.35;2.00;;;;;;;10.65;100.00;98553.59;5405152;26;20002;-78
2024/04/10 06:37:40;;;;;;;9.93;2.25;;;;;;;10.75;100.00;98556.16;5405422;26;20000;-77
2024/04/10 06:40:07;;;;;;;6.70;2.28;;;;;;;10.85;100.00;98558.72;5407808;26;19999;-78
2024/04/10 06:42:34;;;;;;;6.75;2.22;;;;;;;10.80;100.00;98556.09;5385858;26;20019;-78
2024/04/10 06:45:01;;;;;;;4.97;1.95;;;;;;;10.89;100.00;98558.94;5406829;26;20469;-78
2024/04/10 06:47:28;;;;;;;5.47;2.05;;;;;;;11.02;100.00;98566.34;5409848;26;20023;-79
2024/04/10 06:49:55;;;;;;;7.97;2.38;;;;;;;11.07;100.00;98583.28;5409107;26;20008;-78
2024/04/10 06:52:22;;;;;;;14.73;2.47;;;;;;;11.16;100.00;98569.88;5409328;26;20030;-77
2024/04/10 06:54:49;;;;;;;6.32;2.15;;;;;;;11.02;100.00;98574.47;5395192;26;20399;-78
2024/04/10 06:57:15;;;;;;;8.18;2.30;;;;;;;11.01;100.00;98581.78;5413339;26;20452;-79
2024/04/10 06:59:43;;;;;;;6.30;2.17;;;;;;;10.99;100.00;98578.56;5414749;26;20352;-79
2024/04/10 07:02:10;;;;;;;7.03;2.15;;;;;;;10.88;100.00;98579.81;5415962;26;20004;-78
2024/04/10 07:04:37;;;;;;;7.78;2.35;;;;;;;10.87;100.00;98586.31;5405202;26;20043;-78
2024/04/10 07:07:04;;;;;;;4.22;2.15;;;;;;;10.85;100.00;98572.25;5407429;26;20018;-77
2024/04/10 07:09:32;;;;;;;5.93;1.83;;;;;;;11.00;100.00;98584.75;5418093;26;20063;-79
2024/04/10 07:11:59;;;;;;;11.10;1.92;;;;;;;10.86;100.00;98587.44;5408858;26;19991;-76
2024/04/10 07:14:28;;;;;;;4.78;1.80;;;;;;;11.00;100.00;98592.91;5413919;26;20025;-78
2024/04/10 07:16:55;;;;;;;7.32;1.98;;;;;;;11.27;100.00;98599.25;5405903;26;20423;-78
2024/04/10 07:19:23;;;;;;;8.20;2.20;;;;;;;11.21;100.00;98596.91;5410641;26;20000;-78
2024/04/10 07:21:50;;;;;;;7.82;1.73;;;;;;;11.28;100.00;98614.41;5410982;26;20018;-79
2024/04/10 07:24:17;;;;;;;5.80;2.08;;;;;;;11.27;100.00;98620.94;5407442;26;20015;-78
2024/04/10 07:26:44;;;;;;;5.57;2.03;;;;;;;11.23;100.00;98597.41;5409055;26;20365;-78
2024/04/10 07:29:11;;;;;;;6.10;1.92;;;;;;;11.28;100.00;98617.13;5410666;26;20010;-79
2024/04/10 07:31:39;;;;;;;10.18;2.40;;;;;;;11.25;100.00;98635.91;5430180;26;20010;-78
2024/04/10 07:34:07;;;;;;;6.43;2.00;;;;;;;11.24;100.00;98624.25;5446268;26;19990;-77
2024/04/10 07:36:37;;;;;;;7.40;1.98;;;;;;;11.16;100.00;98635.75;5452226;26;20003;-79
2024/04/10 07:39:08;;;;;;;5.97;1.90;;;;;;;11.18;100.00;98630.03;5411817;26;20000;-77
2024/04/10 07:41:38;;;;;;;5.72;1.67;;;;;;;11.27;100.00;98645.34;5409413;26;20003;-81
2024/04/10 07:44:06;;;;;;;9.63;1.80;;;;;;;11.15;100.00;98647.69;5408377;26;20088;-78
2024/04/10 07:46:33;;;;;;;5.75;1.83;;;;;;;11.21;100.00;98660.06;5412299;26;20083;-79
2024/04/10 07:49:00;;;;;;;5.75;2.00;;;;;;;11.44;100.00;98666.50;5407821;26;20003;-79
2024/04/10 07:51:28;;;;;;;6.35;1.90;;;;;;;11.26;100.00;98676.25;5411442;26;21297;-78
2024/04/10 07:53:58;;;;;;;5.43;1.58;;;;;;;11.30;100.00;98686.50;5397731;26;20027;-79
2024/04/10 07:56:29;;;;;;;7.65;1.73;;;;;;;11.19;100.00;98680.44;5415772;26;20019;-80
2024/04/10 07:58:56;;;;;;;6.60;2.08;;;;;;;10.88;100.00;98663.78;5401484;26;20063;-79
2024/04/10 08:01:23;;;;;;;5.25;1.67;;;;;;;11.08;100.00;98663.50;5421670;26;20024;-80
2024/04/10 08:03:50;;;;;;;6.53;2.03;;;;;;;11.18;100.00;98667.97;5409561;26;20003;-79
2024/04/10 08:06:18;;;;;;;7.55;1.65;;;;;;;11.11;100.00;98681.91;5402281;26;20008;-79
2024/04/10 08:08:45;;;;;;;6.10;1.40;;;;;;;11.24;100.00;98674.94;5401452;26;20004;-80
2024/04/10 08:11:17;;;;;;;4.93;1.70;;;;;;;11.30;100.00;98681.91;5410068;26;20458;-80
2024/04/10 08:13:44;;;;;;;8.25;2.08;;;;;;;11.41;100.00;98683.34;5413522;26;20625;-79
2024/04/10 08:16:11;;;;;;;5.50;1.73;;;;;;;11.68;100.00;98693.50;5414937;26;20475;-79
2024/04/10 08:18:41;;;;;;;7.85;1.70;;;;;;;11.80;100.00;98686.53;5408484;26;19999;-79
2024/04/10 08:21:11;;;;;;;7.55;1.90;;;;;;;11.64;100.00;98708.78;5406895;26;20012;-79
2024/04/10 08:23:39;;;;;;;7.78;2.25;;;;;;;11.85;100.00;98704.63;5414995;26;20050;-78
2024/04/10 08:26:17;;;;;;;4.95;1.95;;;;;;;11.62;100.00;98711.75;5426021;26;20126;-78
2024/04/10 08:28:49;;;;;;;8.13;2.33;;;;;;;11.68;100.00;98697.06;5421303;26;20004;-78
2024/04/10 08:31:21;;;;;;;5.63;2.25;;;;;;;11.55;100.00;98702.41;5412388;26;20081;-80
2024/04/10 08:33:50;;;;;;;8.48;2.08;;;;;;;11.53;100.00;98718.16;5396975;26;20007;-79
2024/04/10 08:36:17;;;;;;;10.90;2.25;;;;;;;11.24;100.00;98708.28;5399136;26;20023;-79
2024/04/10 08:38:45;;;;;;;7.07;1.90;;;;;;;11.57;100.00;98717.28;5405491;26;20465;-80
2024/04/10 08:41:14;;;;;;;5.93;1.92;;;;;;;11.70;100.00;98713.03;5411164;26;20000;-80
2024/04/10 08:43:44;;;;;;;9.07;2.53;;;;;;;11.64;100.00;98716.91;5408153;26;20245;-80
2024/04/10 08:46:12;;;;;;;8.70;2.05;;;;;;;11.62;100.00;98717.19;5406122;26;20000;-81
2024/04/10 08:48:41;;;;;;;7.65;2.10;;;;;;;11.50;100.00;98730.41;5405329;26;20015;-79
2024/04/10 08:51:14;;;;;;;12.25;2.20;;;;;;;11.69;100.00;98730.44;5411142;26;20028;-79
2024/04/10 08:53:46;;;;;;;10.40;2.38;;;;;;;11.62;100.00;98729.94;5410935;26;20007;-80
2024/04/10 08:56:16;;;;;;;6.22;2.35;;;;;;;11.59;100.00;98730.53;5408678;26;20002;-79
2024/04/10 08:58:44;;;;;;;7.30;2.55;;;;;;;11.93;100.00;98738.44;5414089;26;20019;-79
2024/04/10 09:01:36;;;;;;;11.38;2.30;;;;;;;12.14;100.00;98739.72;5402383;26;20004;-79
2024/04/10 09:04:08;;;;;;;10.60;2.30;;;;;;;12.34;100.00;98737.44;5407824;26;20014;-76
2024/04/10 09:06:37;;;;;;;9.95;2.42;;;;;;;12.26;100.00;98735.41;5405358;26;20073;-80
2024/04/10 09:09:07;;;;;;;6.32;2.10;;;;;;;12.40;100.00;98749.84;5409877;26;20016;-81
2024/04/10 09:11:37;;;;;;;5.22;1.90;;;;;;;12.57;100.00;98748.47;5404017;26;20465;-82
2024/04/10 09:14:11;;;;;;;8.85;2.38;;;;;;;12.53;100.00;98756.38;5406737;26;20018;-81
2024/04/10 09:16:39;;;;;;;7.55;2.35;;;;;;;12.54;100.00;98752.59;5408924;26;20014;-79
2024/04/10 09:19:25;;;;;;;9.35;2.35;;;;;;;12.52;100.00;98761.00;5402334;26;20000;-81
2024/04/10 09:21:57;;;;;;;7.93;2.00;;;;;;;13.03;100.00;98768.97;5410662;26;20809;-79
2024/04/10 09:24:28;;;;;;;10.95;2.40;;;;;;;12.99;100.00;98772.63;5407741;26;20011;-80
2024/04/10 09:26:56;;;;;;;7.72;2.30;;;;;;;12.60;100.00;98770.38;5405659;26;20015;-81
2024/04/10 09:29:25;;;;;;;13.10;2.40;;;;;;;12.45;100.00;98776.91;5404208;26;20458;-80
2024/04/10 09:31:58;;;;;;;10.10;2.35;;;;;;;12.78;100.00;98766.78;5395613;26;20085;-81
2024/04/10 09:34:25;;;;;;;9.80;2.55;;;;;;;12.90;100.00;98774.44;5412113;26;20007;-82
2024/04/10 09:36:52;;;;;;;9.07;2.20;;;;;;;13.28;100.00;98780.47;5402895;26;20080;-82
2024/04/10 09:39:22;;;;;;;5.65;2.15;;;;;;;13.07;100.00;98774.66;5416527;21;20007;-82
2024/04/10 09:42:03;;;;;;;7.85;2.20;;;;;;;12.90;100.00;98769.00;5372394;26;20021;-83
2024/04/10 09:44:32;;;;;;;7.18;2.63;;;;;;;13.55;100.00;98769.56;5409314;26;20042;-81
2024/04/10 09:47:00;;;;;;;7.07;2.60;;;;;;;13.76;100.00;98776.13;5399894;26;20015;-80
2024/04/10 09:49:48;;;;;;;9.98;3.15;;;;;;;13.30;99.23;98783.69;5365606;26;20076;-81
2024/04/10 09:52:18;;;;;;;12.27;2.88;;;;;;;13.64;100.00;98779.41;5396720;26;20007;-81
2024/04/10 09:54:46;;;;;;;13.90;2.92;;;;;;;13.44;100.00;98781.78;5405210;26;20016;-83
2024/04/10 09:57:15;;;;;;;7.57;2.33;;;;;;;14.19;100.00;98780.00;5411499;26;20013;-82
2024/04/10 09:59:42;;;;;;;5.25;2.15;;;;;;;13.79;95.36;98778.25;5404861;26;20638;-80
2024/04/10 10:02:19;;;;;;;12.07;2.38;;;;;;;13.78;95.89;98790.25;5402620;26;20029;-79
2024/04/10 10:04:46;;;;;;;7.20;2.22;;;;;;;14.34;93.08;98792.47;5388011;26;20027;-79
2024/04/10 10:07:24;;;;;;;10.20;2.70;;;;;;;14.61;89.14;98796.94;5408712;26;20007;-82
2024/04/10 10:09:52;;;;;;;5.30;2.33;;;;;;;14.61;88.45;98792.31;5405964;26;20032;-80
2024/04/10 10:12:26;;;;;;;6.75;2.20;;;;;;;14.60;87.40;98800.81;5356289;26;20400;-82
2024/04/10 10:14:53;;;;;;;9.45;2.28;;;;;;;13.90;85.85;98803.31;5410121;26;20004;-80
2024/04/10 10:17:29;;;;;;;11.65;2.72;;;;;;;13.46;90.53;98798.59;5387041;26;20016;-83
2024/04/10 10:20:19;;;;;;;11.95;2.60;;;;;;;13.51;92.90;98793.84;5383383;26;20000;-81
2024/04/10 10:22:59;;;;;;;10.23;2.58;;;;;;;13.79;96.15;98791.84;5389544;26;20330;-83
2024/04/10 10:25:27;;;;;;;9.85;2.45;;;;;;;13.62;91.92;98794.44;5399488;26;20003;-80
2024/04/10 10:28:08;;;;;;;8.45;2.65;;;;;;;13.98;84.16;98795.22;5405016;26;20023;-80
2024/04/10 10:30:36;;;;;;;7.68;2.38;;;;;;;13.86;82.17;98807.78;5407699;26;20013;-80
2024/04/10 10:33:06;;;;;;;12.10;2.45;;;;;;;14.37;82.15;98797.31;5401604;26;20081;-79
2024/04/10 10:35:34;;;;;;;9.80;2.78;;;;;;;14.66;82.52;98800.34;5394449;26;20389;-81
2024/04/10 10:38:04;;;;;;;6.90;2.05;;;;;;;14.98;73.77;98799.22;5390606;26;20408;-80
2024/04/10 10:40:34;;;;;;;8.38;2.03;;;;;;;14.81;72.59;98812.78;5407327;26;20073;-81
2024/04/10 10:43:05;;;;;;;9.05;2.42;;;;;;;14.50;80.38;98810.06;5409134;26;20003;-80
2024/04/10 10:45:34;;;;;;;10.73;2.50;;;;;;;14.39;78.06;98826.94;5386036;26;20454;-82
2024/04/10 10:48:08;;;;;;;10.50;2.33;;;;;;;14.40;82.52;98812.22;5379175;26;20409;-81
2024/04/10 10:50:36;;;;;;;13.02;1.92;;;;;;;14.37;80.72;98797.31;5393203;26;20445;-81
2024/04/10 10:53:06;;;;;;;8.73;2.45;;;;;;;14.37;80.59;98805.47;5402718;26;20471;-80
2024/04/10 10:55:48;;;;;;;6.35;2.42;;;;;;;13.73;85.49;98832.00;5396840;26;20007;-80
2024/04/10 10:58:27;;;;;;;9.70;2.30;;;;;;;13.59;89.33;98808.66;5367901;26;20026;-81
2024/04/10 11:00:54;;;;;;;7.07;2.75;;;;;;;13.43;94.43;98826.41;5408984;26;20004;-80
2024/04/10 11:03:22;;;;;;;8.50;3.33;;;;;;;13.37;96.94;98836.56;5407572;26;20007;-81
2024/04/10 11:06:06;;;;;;;11.75;2.85;;;;;;;13.74;97.65;98843.69;5393901;26;20010;-80
2024/04/10 11:08:34;;;;;;;11.25;2.83;;;;;;;13.84;93.17;98837.19;5397514;26;20020;-81
2024/04/10 11:11:01;;;;;;;6.03;2.45;;;;;;;14.49;95.53;98840.31;5413442;26;20014;-82
2024/04/10 11:13:28;;;;;;;8.57;2.90;;;;;;;14.60;81.32;98839.78;5406948;26;20007;-80
2024/04/10 11:15:57;;;;;;;6.85;2.03;;;;;;;14.91;76.68;98835.13;5405157;26;20004;-81
2024/04/10 11:18:25;;;;;;;12.55;2.53;;;;;;;15.45;76.11;98816.69;5385463;26;20081;-81
2024/04/10 11:20:53;;;;;;;9.85;1.90;;;;;;;15.43;68.42;98838.06;5395876;26;20032;-80
2024/04/10 11:23:21;;;;;;;5.82;1.50;;;;;;;15.21;62.02;98838.13;5372628;26;20085;-80
2024/04/10 11:25:51;;;;;;;5.53;1.63;;;;;;;15.62;66.53;98827.69;5374756;26;20008;-81
2024/04/10 11:28:18;;;;;;;4.35;1.63;;;;;;;15.76;67.39;98817.44;5396018;26;20018;-81
2024/04/10 11:30:45;;;;;;;5.80;1.95;;;;;;;15.66;63.48;98830.59;5388049;26;20015;-79
2024/04/10 11:33:11;;;;;;;3.70;1.55;;;;;;;16.64;62.89;98826.09;5404340;26;20308;-78